Aérodrome :
LOGIN :

S'inscrire | Disclaimer

   EN    FR    IT 

 










Légende :    VFR   VFR Marginal   IFR   IFR Intensif   IFR Très Intensif
Visi : 
Plafond : 
>= 8 km
>= 3000ft
5 à 8 km
1000 à 3000 ft
1500m à 5 km
500 à 1000 ft
800 à 1500m
200 à 500 ft
< 800m
< 200 ft
Symboles :   Orages  Brouillard  Fortes neiges  Fortes précipitations  Vent > 20 kt
SIGMETs :   Divers  Orages  Givrage  Turbulence  Onde Orograph.  Cendres Volcan.






- Altitude de l'aérodrome : 1017 ft


LFSL - Brive Souillac

DERNIER METAR :
  • 060400Z AUTO 00000KT 9999 OVC047 02/01 Q1021 TEMPO 3000 BR

METARs EXPIRÉS :
  • 060330Z AUTO 00000KT 9999 BKN047 02/01 Q1021 TEMPO 3000 BR
  • 060300Z AUTO 00000KT 9999 OVC046 02/01 Q1021 TEMPO 3000 BR
  • 060230Z AUTO 00000KT 9999 OVC045 01/00 Q1021
  • 060200Z AUTO 29002KT 9999 SCT044 00/M01 Q1021
  • 060130Z AUTO 00000KT CAVOK 00/M01 Q1021

TAF TAF LFSL
Valide du 06 à 03h jusqu'au 06 à 12h UTC


060200Z 0603/0612 VRB02KT 9999 BKN045
PROB40
TEMPO 0603/0606 3000 BR



MET'MAP, la Météo Aéronautique d'un coup d'oeil ! - Copyright ORBIFLY Décembre 2007 - Disclaimer

ORBIFLY MET'MAP TEAM :

Programmation & Développement : Alexandra Zaïnal
Sur une idée originale de : Baudouin d'Aumeries
Assistance à la programmation : Marc-Olivier Méhu
Soutien technique & logistique : Manuel Goepfert

Contact : metmap@orbifly.com




SOURCES & CREDITS :

   NOAA